Koyo — JD2279 — position and weather

sailwx.info

Track history (hours):
 
Tides and Currents Weather Stations Pressure Air Temp Water Temp Dewpoint Dewpoint Depression Visibility Wind Speed Wind Dir Waves Ship Positions

Koyo

Last reported at 2015-Aug-27 03:30 UTC. Time now 2015-Aug-28 22:22 UTC.
Position N 34°41' E 135°12'.

Length 80 m; draft 3.6 m.

Type: Cargo ship. MMSI: 431301812.

Date/timePositionNaut miles runAvg speedWind from/ knotsBaromVisibWave heightAir tempDewpointWater temp
2015-Aug-27 03:30N 34°41' E 135°12'1 1.3
2015-Aug-27 02:33N 34°41' E 135°14'1 1.4
2015-Aug-27 01:33N 34°39' E 135°15'1 0.7
2015-Aug-27 00:28N 34°39' E 135°15'8 8.3
2015-Aug-26 23:33N 34°35' E 135°07'1111.0
2015-Aug-26 22:33N 34°35' E 134°53'5 0.1
2015-Aug-25 03:33N 34°37' E 134°58'1212.6
2015-Aug-25 02:34N 34°37' E 135°13'3 2.7
2015-Aug-25 01:34N 34°40' E 135°14'0 0.0
2015-Aug-25 00:34N 34°40' E 135°14'0 0.0
2015-Aug-24 23:34N 34°40' E 135°14'4 4.2
2015-Aug-24 22:34N 34°36' E 135°11'1211.4
2015-Aug-24 21:33N 34°36' E 134°57'6 0.2
2015-Aug-23 13:23N 34°34' E 134°50'1011.6
2015-Aug-23 12:30N 34°37' E 135°02'1111.6
2015-Aug-23 11:33N 34°38' E 135°15'1 1.1
2015-Aug-23 10:33N 34°39' E 135°15'1212.0
2015-Aug-23 09:33N 34°28' E 135°10'1312.5
2015-Aug-23 08:29N 34°17' E 134°60'16 0.3
2015-Aug-21 05:27N 34°06' E 134°46'1112.2
2015-Aug-21 04:31N 34°13' E 134°56'1110.9
2015-Aug-21 03:32N 34°23' E 135°01'1212.5
2015-Aug-21 02:34N 34°33' E 135°10'7 7.3
2015-Aug-21 01:34N 34°40' E 135°14'0 0.0
2015-Aug-21 00:33N 34°40' E 135°14'0 0.1
2015-Aug-20 23:34N 34°40' E 135°14'2 1.8
2015-Aug-20 22:34N 34°38' E 135°15'9 8.9
2015-Aug-20 21:34N 34°35' E 135°04'14 0.3
2015-Aug-19 05:09N 34°34' E 134°48'813.2
2015-Aug-19 04:33N 34°37' E 134°56'1211.6
2015-Aug-19 03:34N 34°36' E 135°10'4 4.5
2015-Aug-19 02:34N 34°40' E 135°14'14 0.3
2015-Aug-17 04:33N 34°37' E 134°58'9 9.2
2015-Aug-17 03:32N 34°36' E 135°09'  
Track history (hours):
 
Tides and Currents Weather Stations Pressure Air Temp Water Temp Dewpoint Dewpoint Depression Visibility Wind Speed Wind Dir Waves Ship Positions

Koyo

Last reported at 2015-Aug-27 03:30 UTC. Time now 2015-Aug-28 22:22 UTC.
Position N 34°41' E 135°12'.

Length 80 m; draft 3.6 m.

Type: Cargo ship. MMSI: 431301812.

Date/timePositionNaut miles runAvg speedWind from/ knotsBaromVisibWave heightAir tempDewpointWater temp
2015-Aug-27 03:30N 34°41' E 135°12'1 1.3
2015-Aug-27 02:33N 34°41' E 135°14'1 1.4
2015-Aug-27 01:33N 34°39' E 135°15'1 0.7
2015-Aug-27 00:28N 34°39' E 135°15'8 8.3
2015-Aug-26 23:33N 34°35' E 135°07'1111.0
2015-Aug-26 22:33N 34°35' E 134°53'5 0.1
2015-Aug-25 03:33N 34°37' E 134°58'1212.6
2015-Aug-25 02:34N 34°37' E 135°13'3 2.7
2015-Aug-25 01:34N 34°40' E 135°14'0 0.0
2015-Aug-25 00:34N 34°40' E 135°14'0 0.0
2015-Aug-24 23:34N 34°40' E 135°14'4 4.2
2015-Aug-24 22:34N 34°36' E 135°11'1211.4
2015-Aug-24 21:33N 34°36' E 134°57'6 0.2
2015-Aug-23 13:23N 34°34' E 134°50'1011.6
2015-Aug-23 12:30N 34°37' E 135°02'1111.6
2015-Aug-23 11:33N 34°38' E 135°15'1 1.1
2015-Aug-23 10:33N 34°39' E 135°15'1212.0
2015-Aug-23 09:33N 34°28' E 135°10'1312.5
2015-Aug-23 08:29N 34°17' E 134°60'16 0.3
2015-Aug-21 05:27N 34°06' E 134°46'1112.2
2015-Aug-21 04:31N 34°13' E 134°56'1110.9
2015-Aug-21 03:32N 34°23' E 135°01'1212.5
2015-Aug-21 02:34N 34°33' E 135°10'7 7.3
2015-Aug-21 01:34N 34°40' E 135°14'0 0.0
2015-Aug-21 00:33N 34°40' E 135°14'0 0.1
2015-Aug-20 23:34N 34°40' E 135°14'2 1.8
2015-Aug-20 22:34N 34°38' E 135°15'9 8.9
2015-Aug-20 21:34N 34°35' E 135°04'14 0.3
2015-Aug-19 05:09N 34°34' E 134°48'813.2
2015-Aug-19 04:33N 34°37' E 134°56'1211.6
2015-Aug-19 03:34N 34°36' E 135°10'4 4.5
2015-Aug-19 02:34N 34°40' E 135°14'14 0.3
2015-Aug-17 04:33N 34°37' E 134°58'9 9.2
2015-Aug-17 03:32N 34°36' E 135°09'  

Dump ship's entire track history